Sarah — ODVY — position and weather

sailwx.info

Track history (hours):
 
Tides and Currents Weather Stations Pressure Air Temp Water Temp Dewpoint Dewpoint Depression Visibility Wind Speed Wind Dir Waves Ship Positions

Sarah

Last reported at 2017-Nov-13 21:39 UTC. Time now 2017-Nov-19 04:55 UTC.
Position N 36°38' E 014°34'.

Length 77 m; draft 6.4 m.

Type: Cargo ship. MMSI: 450554000.

Date/timePositionNaut miles runAvg speedWind from/ knotsBaromVisibWave heightAir tempDewpointWater temp
2017-Nov-13 21:39N 36°38' E 014°34'  
2017-Nov-10 03:15N 36°01' W 005°11'310.8
2017-Nov-10 03:00N 36°01' W 005°14'510.2
2017-Nov-10 02:30N 35°60' W 005°20'510.3
2017-Nov-10 02:01N 35°58' W 005°26'258 8.5
2017-Nov-08 19:38N 38°18' W 009°58'210.6
2017-Nov-08 19:27N 38°19' W 009°59'510.5
2017-Nov-08 19:00N 38°24' W 010°00'610.5
2017-Nov-08 18:29N 38°29' W 010°02'511.0
2017-Nov-08 18:01N 38°34' W 010°03'611.0
2017-Nov-08 17:31N 38°40' W 010°05'510.6
2017-Nov-08 17:00N 38°45' W 010°06'510.3
2017-Nov-08 16:30N 38°50' W 010°06'5 9.9
2017-Nov-08 16:00N 38°55' W 010°06'5 9.7
2017-Nov-08 15:30N 38°60' W 010°06'5 9.5
2017-Nov-08 15:00N 39°05' W 010°06'510.0
2017-Nov-08 14:30N 39°10' W 010°06'  
2017-Nov-05 09:48N 52°03' W 005°50'3 8.4
2017-Nov-05 09:29N 52°05' W 005°49'4 8.0
2017-Nov-05 09:00N 52°09' W 005°48'4 7.6
2017-Nov-05 08:30N 52°13' W 005°48'4 7.6
2017-Nov-05 08:01N 52°17' W 005°47'4 7.8
2017-Nov-05 07:31N 52°21' W 005°47'4 8.0
2017-Nov-05 07:01N 52°25' W 005°46'4 8.3
2017-Nov-05 06:30N 52°29' W 005°45'7311.6
2017-Nov-05 00:12N 53°42' W 005°52'211.2
2017-Nov-05 00:00N 53°44' W 005°53'510.8
2017-Nov-04 23:30N 53°49' W 005°55'510.3
2017-Nov-04 23:00N 53°54' W 005°57'510.2
2017-Nov-04 22:30N 53°59' W 006°01'4 8.5
2017-Nov-04 22:00N 54°02' W 006°06'1 1.9
2017-Nov-04 21:29N 54°02' W 006°08'0 0.0
2017-Nov-04 20:59N 54°02' W 006°08'0 0.0
2017-Nov-04 20:29N 54°02' W 006°08'0 0.0
2017-Nov-04 19:59N 54°02' W 006°08'0 0.0
2017-Nov-04 19:29N 54°02' W 006°08'0 0.0
2017-Nov-04 18:59N 54°02' W 006°08'0 0.0
2017-Nov-04 18:26N 54°02' W 006°08'0 0.0
2017-Nov-04 17:59N 54°02' W 006°08'0 0.0
2017-Nov-04 17:29N 54°02' W 006°08'0 0.0
2017-Nov-04 16:59N 54°02' W 006°08'0 0.0
2017-Nov-04 16:29N 54°02' W 006°08'0 0.0
2017-Nov-04 15:59N 54°02' W 006°08'0 0.0
2017-Nov-04 15:29N 54°02' W 006°08'0 0.0
2017-Nov-04 14:59N 54°02' W 006°08'0 0.0
2017-Nov-04 14:29N 54°02' W 006°08'0 0.0
2017-Nov-04 13:59N 54°02' W 006°08'0 0.0
2017-Nov-04 13:23N 54°02' W 006°08'0 0.0
2017-Nov-04 12:59N 54°02' W 006°08'0 0.0
2017-Nov-04 12:29N 54°02' W 006°08'0 0.0
2017-Nov-04 11:59N 54°02' W 006°08'0 0.0
2017-Nov-04 11:29N 54°02' W 006°08'0 0.0
2017-Nov-04 10:59N 54°02' W 006°08'0 0.0
2017-Nov-04 10:29N 54°02' W 006°08'0 0.0
2017-Nov-04 09:56N 54°02' W 006°08'0 0.0
2017-Nov-04 09:29N 54°02' W 006°08'0 0.0
2017-Nov-04 08:59N 54°02' W 006°08'0 0.0
2017-Nov-04 08:29N 54°02' W 006°08'0 0.0
2017-Nov-04 07:59N 54°02' W 006°08'0 0.0
2017-Nov-04 07:26N 54°02' W 006°08'0 0.0
2017-Nov-04 06:59N 54°02' W 006°08'0 0.0
2017-Nov-04 06:29N 54°02' W 006°08'0 0.0
2017-Nov-04 05:59N 54°02' W 006°08'0 0.0
2017-Nov-04 05:29N 54°02' W 006°08'0 0.0
2017-Nov-04 04:59N 54°02' W 006°08'0 0.0
2017-Nov-04 04:29N 54°02' W 006°08'0 0.0
2017-Nov-04 03:59N 54°02' W 006°08'0 0.0
2017-Nov-04 03:29N 54°02' W 006°08'0 0.0
2017-Nov-04 02:59N 54°02' W 006°08'0 0.0
2017-Nov-04 02:29N 54°02' W 006°08'0 0.0
2017-Nov-04 01:59N 54°02' W 006°08'0 0.0
2017-Nov-04 01:29N 54°02' W 006°08'0 0.0
2017-Nov-04 00:59N 54°02' W 006°08'0 0.0
2017-Nov-04 00:29N 54°02' W 006°08'0 0.0
2017-Nov-03 23:59N 54°02' W 006°08'0 0.0
2017-Nov-03 23:26N 54°02' W 006°08'0 0.0
2017-Nov-03 23:01N 54°02' W 006°08'3 5.5
2017-Nov-03 22:31N 54°01' W 006°04'2 4.7
2017-Nov-03 22:01N 53°60' W 006°00'  
Track history (hours):
 
Tides and Currents Weather Stations Pressure Air Temp Water Temp Dewpoint Dewpoint Depression Visibility Wind Speed Wind Dir Waves Ship Positions

Sarah

Last reported at 2017-Nov-13 21:39 UTC. Time now 2017-Nov-19 04:55 UTC.
Position N 36°38' E 014°34'.

Length 77 m; draft 6.4 m.

Type: Cargo ship. MMSI: 450554000.

Date/timePositionNaut miles runAvg speedWind from/ knotsBaromVisibWave heightAir tempDewpointWater temp
2017-Nov-13 21:39N 36°38' E 014°34'  
2017-Nov-10 03:15N 36°01' W 005°11'310.8
2017-Nov-10 03:00N 36°01' W 005°14'510.2
2017-Nov-10 02:30N 35°60' W 005°20'510.3
2017-Nov-10 02:01N 35°58' W 005°26'258 8.5
2017-Nov-08 19:38N 38°18' W 009°58'210.6
2017-Nov-08 19:27N 38°19' W 009°59'510.5
2017-Nov-08 19:00N 38°24' W 010°00'610.5
2017-Nov-08 18:29N 38°29' W 010°02'511.0
2017-Nov-08 18:01N 38°34' W 010°03'611.0
2017-Nov-08 17:31N 38°40' W 010°05'510.6
2017-Nov-08 17:00N 38°45' W 010°06'510.3
2017-Nov-08 16:30N 38°50' W 010°06'5 9.9
2017-Nov-08 16:00N 38°55' W 010°06'5 9.7
2017-Nov-08 15:30N 38°60' W 010°06'5 9.5
2017-Nov-08 15:00N 39°05' W 010°06'510.0
2017-Nov-08 14:30N 39°10' W 010°06'  
2017-Nov-05 09:48N 52°03' W 005°50'3 8.4
2017-Nov-05 09:29N 52°05' W 005°49'4 8.0
2017-Nov-05 09:00N 52°09' W 005°48'4 7.6
2017-Nov-05 08:30N 52°13' W 005°48'4 7.6
2017-Nov-05 08:01N 52°17' W 005°47'4 7.8
2017-Nov-05 07:31N 52°21' W 005°47'4 8.0
2017-Nov-05 07:01N 52°25' W 005°46'4 8.3
2017-Nov-05 06:30N 52°29' W 005°45'7311.6
2017-Nov-05 00:12N 53°42' W 005°52'211.2
2017-Nov-05 00:00N 53°44' W 005°53'510.8
2017-Nov-04 23:30N 53°49' W 005°55'510.3
2017-Nov-04 23:00N 53°54' W 005°57'510.2
2017-Nov-04 22:30N 53°59' W 006°01'4 8.5
2017-Nov-04 22:00N 54°02' W 006°06'1 1.9
2017-Nov-04 21:29N 54°02' W 006°08'0 0.0
2017-Nov-04 20:59N 54°02' W 006°08'0 0.0
2017-Nov-04 20:29N 54°02' W 006°08'0 0.0
2017-Nov-04 19:59N 54°02' W 006°08'0 0.0
2017-Nov-04 19:29N 54°02' W 006°08'0 0.0
2017-Nov-04 18:59N 54°02' W 006°08'0 0.0
2017-Nov-04 18:26N 54°02' W 006°08'0 0.0
2017-Nov-04 17:59N 54°02' W 006°08'0 0.0
2017-Nov-04 17:29N 54°02' W 006°08'0 0.0
2017-Nov-04 16:59N 54°02' W 006°08'0 0.0
2017-Nov-04 16:29N 54°02' W 006°08'0 0.0
2017-Nov-04 15:59N 54°02' W 006°08'0 0.0
2017-Nov-04 15:29N 54°02' W 006°08'0 0.0
2017-Nov-04 14:59N 54°02' W 006°08'0 0.0
2017-Nov-04 14:29N 54°02' W 006°08'0 0.0
2017-Nov-04 13:59N 54°02' W 006°08'0 0.0
2017-Nov-04 13:23N 54°02' W 006°08'0 0.0
2017-Nov-04 12:59N 54°02' W 006°08'0 0.0
2017-Nov-04 12:29N 54°02' W 006°08'0 0.0
2017-Nov-04 11:59N 54°02' W 006°08'0 0.0
2017-Nov-04 11:29N 54°02' W 006°08'0 0.0
2017-Nov-04 10:59N 54°02' W 006°08'0 0.0
2017-Nov-04 10:29N 54°02' W 006°08'0 0.0
2017-Nov-04 09:56N 54°02' W 006°08'0 0.0
2017-Nov-04 09:29N 54°02' W 006°08'0 0.0
2017-Nov-04 08:59N 54°02' W 006°08'0 0.0
2017-Nov-04 08:29N 54°02' W 006°08'0 0.0
2017-Nov-04 07:59N 54°02' W 006°08'0 0.0
2017-Nov-04 07:26N 54°02' W 006°08'0 0.0
2017-Nov-04 06:59N 54°02' W 006°08'0 0.0
2017-Nov-04 06:29N 54°02' W 006°08'0 0.0
2017-Nov-04 05:59N 54°02' W 006°08'0 0.0
2017-Nov-04 05:29N 54°02' W 006°08'0 0.0
2017-Nov-04 04:59N 54°02' W 006°08'0 0.0
2017-Nov-04 04:29N 54°02' W 006°08'0 0.0
2017-Nov-04 03:59N 54°02' W 006°08'0 0.0
2017-Nov-04 03:29N 54°02' W 006°08'0 0.0
2017-Nov-04 02:59N 54°02' W 006°08'0 0.0
2017-Nov-04 02:29N 54°02' W 006°08'0 0.0
2017-Nov-04 01:59N 54°02' W 006°08'0 0.0
2017-Nov-04 01:29N 54°02' W 006°08'0 0.0
2017-Nov-04 00:59N 54°02' W 006°08'0 0.0
2017-Nov-04 00:29N 54°02' W 006°08'0 0.0
2017-Nov-03 23:59N 54°02' W 006°08'0 0.0
2017-Nov-03 23:26N 54°02' W 006°08'0 0.0
2017-Nov-03 23:01N 54°02' W 006°08'3 5.5
2017-Nov-03 22:31N 54°01' W 006°04'2 4.7
2017-Nov-03 22:01N 53°60' W 006°00'  

Dump ship's entire track history